Time;durP1;ratioP1;P1;durP2;ratioP2;P2;SDS_P1;SDS_P2;PMS_P1;PMS_P2;Temp;Humidity;BMP_temperature;BMP_pressure;BME280_temperature;BME280_humidity;BME280_pressure;Samples;Min_cycle;Max_cycle;Signal;HPM_P1;HPM_P2
2024/02/27 00:02:35;;;;;;;29.50;15.30;;;;;;;3.18;71.86;99988.26;107518;1254;66845;-40
2024/02/27 00:05:03;;;;;;;35.90;16.80;;;;;;;3.15;71.92;99991.00;107533;1257;71430;-40
2024/02/27 00:07:31;;;;;;;31.10;16.40;;;;;;;3.11;72.16;99991.92;107494;1254;60826;-40
2024/02/27 00:09:59;;;;;;;32.70;15.50;;;;;;;3.06;72.17;99993.53;107535;1257;60024;-40
2024/02/27 00:12:26;;;;;;;29.10;15.40;;;;;;;3.06;72.08;99992.95;107505;1254;73853;-40
2024/02/27 00:14:54;;;;;;;28.60;14.90;;;;;;;3.07;72.11;99991.86;107476;1254;66715;-40
2024/02/27 00:17:22;;;;;;;33.50;16.40;;;;;;;3.04;72.09;99989.66;107501;1254;72671;-40
2024/02/27 00:19:49;;;;;;;31.40;16.70;;;;;;;2.99;72.24;99992.37;107497;1253;60406;-40
2024/02/27 00:22:17;;;;;;;34.80;16.80;;;;;;;2.96;72.33;99993.92;107498;1257;60284;-40
2024/02/27 00:24:44;;;;;;;29.90;16.20;;;;;;;2.91;72.48;99998.29;107424;1254;73859;-40
2024/02/27 00:27:12;;;;;;;34.20;15.40;;;;;;;2.85;72.42;99984.36;107448;1254;66274;-40
2024/02/27 00:29:40;;;;;;;25.50;15.20;;;;;;;2.92;72.38;99990.35;107448;1254;72676;-39
2024/02/27 00:32:07;;;;;;;29.80;16.90;;;;;;;2.94;72.42;99993.43;107478;1254;60403;-40
2024/02/27 00:34:36;;;;;;;31.90;16.40;;;;;;;2.92;72.52;99991.75;107467;1254;60312;-41
2024/02/27 00:37:03;;;;;;;32.30;17.00;;;;;;;2.87;72.63;99988.62;107549;1259;73824;-41
2024/02/27 00:39:31;;;;;;;32.50;16.40;;;;;;;2.82;72.43;99990.95;107539;1254;67530;-40
2024/02/27 00:41:58;;;;;;;33.00;16.30;;;;;;;2.82;72.61;99992.98;107476;1254;72751;-40
2024/02/27 00:44:26;;;;;;;29.70;16.00;;;;;;;2.82;72.46;99984.79;107517;1253;60916;-40
2024/02/27 00:46:53;;;;;;;32.60;15.70;;;;;;;2.77;72.38;99986.31;107512;1254;60510;-40
2024/02/27 00:49:21;;;;;;;31.50;16.60;;;;;;;2.71;72.65;99982.52;107522;1254;72603;-40
2024/02/27 00:51:48;;;;;;;30.20;15.90;;;;;;;2.67;72.77;99978.87;107496;1254;66270;-40
2024/02/27 00:54:16;;;;;;;30.70;15.60;;;;;;;2.65;72.83;99977.67;107492;1254;72715;-40
2024/02/27 00:56:44;;;;;;;32.40;15.10;;;;;;;2.66;72.83;99977.34;107509;1254;60871;-40
2024/02/27 00:59:11;;;;;;;27.20;15.00;;;;;;;2.67;72.75;99973.95;107520;1254;60373;-40
2024/02/27 01:01:39;;;;;;;32.50;16.90;;;;;;;2.65;72.84;99972.96;107534;1254;72415;-41
2024/02/27 01:04:07;;;;;;;29.20;16.50;;;;;;;2.62;72.86;99971.86;107494;1259;67601;-40
2024/02/27 01:06:34;;;;;;;32.60;15.90;;;;;;;2.61;73.00;99970.13;107485;1254;72771;-38
2024/02/27 01:09:02;;;;;;;26.80;16.20;;;;;;;2.60;72.74;99968.91;107353;1259;172258;-40
2024/02/27 01:13:26;;;;;;;30.10;15.60;;;;;;;2.64;72.79;99969.05;104368;1290;600809;-40
2024/02/27 01:15:54;;;;;;;30.70;16.50;;;;;;;2.60;72.74;99968.55;106667;1267;59222;-40
2024/02/27 01:18:22;;;;;;;31.90;16.40;;;;;;;2.55;72.73;99974.56;107064;1258;60519;-39
2024/02/27 01:20:50;;;;;;;26.80;15.30;;;;;;;2.51;72.81;99968.89;107083;1258;71070;-40
2024/02/27 01:23:17;;;;;;;36.90;15.90;;;;;;;2.45;72.92;99960.59;107051;1257;67858;-40
2024/02/27 01:25:45;;;;;;;28.00;15.40;;;;;;;2.52;72.75;99972.40;105570;1260;1002990;-40
2024/02/27 01:28:13;;;;;;;28.20;16.00;;;;;;;2.52;72.75;99976.68;107575;1251;161835;-40
2024/02/27 01:30:40;;;;;;;29.40;16.10;;;;;;;2.52;72.79;99979.20;107763;1251;59189;-39
2024/02/27 01:33:08;;;;;;;32.40;16.90;;;;;;;2.49;72.72;99980.06;107724;1250;72225;-39
2024/02/27 01:35:35;;;;;;;31.30;15.80;;;;;;;2.44;72.64;99976.97;107672;1251;66279;-40
2024/02/27 01:38:03;;;;;;;28.30;15.80;;;;;;;2.43;72.76;99974.46;107669;1251;72679;-40
2024/02/27 01:40:31;;;;;;;29.90;15.60;;;;;;;2.45;72.55;99975.52;107681;1251;59785;-39
2024/02/27 01:42:58;;;;;;;27.70;16.30;;;;;;;2.43;72.50;99976.08;107716;1251;59539;-40
2024/02/27 01:45:26;;;;;;;30.30;16.80;;;;;;;2.40;72.63;99975.64;107707;1251;73010;-40
2024/02/27 01:47:54;;;;;;;35.00;17.60;;;;;;;2.38;72.52;99979.20;107710;1256;67540;-39
2024/02/27 01:50:23;;;;;;;31.40;16.00;;;;;;;2.35;72.70;99977.65;107716;1251;72651;-39
2024/02/27 01:52:51;;;;;;;21.60;12.30;;;;;;;2.36;72.52;99981.27;107765;1250;59776;-39
2024/02/27 01:55:19;;;;;;;34.50;16.70;;;;;;;2.41;72.33;99982.59;107608;1250;59986;-39
2024/02/27 01:57:48;;;;;;;32.30;16.80;;;;;;;2.45;72.13;99979.27;107635;1251;72868;-40
2024/02/27 02:00:16;;;;;;;32.70;16.50;;;;;;;2.44;72.23;99978.73;107782;1251;67122;-39
2024/02/27 02:02:44;;;;;;;34.40;16.50;;;;;;;2.42;72.04;99981.71;107708;1251;73014;-40
2024/02/27 02:05:12;;;;;;;29.90;16.90;;;;;;;2.36;71.91;99986.51;107726;1251;59509;-39
2024/02/27 02:07:40;;;;;;;32.40;16.40;;;;;;;2.30;71.97;99986.55;107701;1251;60016;-40
2024/02/27 02:10:11;;;;;;;29.70;16.30;;;;;;;2.25;71.84;99989.77;107735;1251;72104;-39
2024/02/27 02:12:38;;;;;;;29.70;15.50;;;;;;;2.23;71.84;99990.02;107753;1251;68736;-40
2024/02/27 02:15:07;;;;;;;29.50;15.70;;;;;;;2.21;71.78;99992.98;107502;1251;72689;-40
2024/02/27 02:17:35;;;;;;;31.20;16.80;;;;;;;2.16;72.00;99993.05;107683;1254;59691;-39
2024/02/27 02:20:05;;;;;;;34.90;16.50;;;;;;;2.12;72.15;99992.52;107751;1251;59550;-40
2024/02/27 02:22:33;;;;;;;28.00;16.40;;;;;;;2.07;71.94;99995.95;107782;1251;70786;-39
2024/02/27 02:25:01;;;;;;;32.40;16.20;;;;;;;2.00;71.99;99996.26;107758;1250;66323;-40
2024/02/27 02:27:30;;;;;;;28.80;16.40;;;;;;;1.98;72.15;99997.98;107551;1251;71737;-39
2024/02/27 02:29:58;;;;;;;35.50;16.30;;;;;;;1.96;72.35;99994.60;107618;1254;59697;-39
2024/02/27 02:32:25;;;;;;;38.00;18.00;;;;;;;1.89;72.30;99997.09;107639;1251;60052;-39
2024/02/27 02:34:53;;;;;;;30.80;17.80;;;;;;;1.82;72.44;99992.54;107573;1252;72505;-40
2024/02/27 02:37:21;;;;;;;31.10;16.80;;;;;;;1.76;72.70;99990.30;107544;1254;66422;-40
2024/02/27 02:39:49;;;;;;;32.70;16.70;;;;;;;1.73;72.71;99989.00;107527;1258;72705;-40
2024/02/27 02:42:16;;;;;;;32.30;17.30;;;;;;;1.74;72.71;99989.98;107500;1254;59591;-40
2024/02/27 02:44:44;;;;;;;35.60;17.60;;;;;;;1.73;72.86;99995.15;107529;1258;59930;-40
2024/02/27 02:47:11;;;;;;;32.50;17.60;;;;;;;1.70;72.99;99995.66;107510;1254;73051;-39
2024/02/27 02:49:39;;;;;;;29.20;16.90;;;;;;;1.66;72.90;99998.80;107547;1253;65479;-40
2024/02/27 02:52:09;;;;;;;31.00;13.50;;;;;;;1.65;73.02;100006.52;107476;1254;72718;-39
2024/02/27 02:54:36;;;;;;;31.30;16.20;;;;;;;1.67;72.86;100004.84;107477;1254;60912;-39
2024/02/27 02:57:04;;;;;;;34.40;16.30;;;;;;;1.69;72.63;100002.24;107531;1252;60061;-39
2024/02/27 02:59:32;;;;;;;33.40;15.70;;;;;;;1.67;72.86;100004.84;107501;1254;71766;-39
2024/02/27 03:01:59;;;;;;;35.30;16.80;;;;;;;1.63;72.88;100004.93;107525;1253;67879;-39
2024/02/27 03:04:27;;;;;;;28.70;16.30;;;;;;;1.60;72.92;100008.77;107476;1254;72668;-39
2024/02/27 03:06:54;;;;;;;34.10;16.30;;;;;;;1.58;73.04;100013.65;107481;1254;59601;-39
2024/02/27 03:09:22;;;;;;;29.80;15.50;;;;;;;1.61;72.63;100015.76;107441;1254;60021;-40
2024/02/27 03:11:50;;;;;;;24.70;15.00;;;;;;;1.66;72.46;100012.16;107527;1254;72390;-40
2024/02/27 03:14:18;;;;;;;27.30;15.90;;;;;;;1.67;72.29;100016.49;107536;1254;68291;-40
2024/02/27 03:16:46;;;;;;;31.90;15.60;;;;;;;1.68;72.36;100017.17;107517;1254;71387;-39
2024/02/27 03:19:13;;;;;;;29.10;15.60;;;;;;;1.68;72.06;100017.93;107481;1254;59636;-40
2024/02/27 03:21:41;;;;;;;26.80;16.10;;;;;;;1.67;71.99;100023.70;107537;1254;60076;-40
2024/02/27 03:24:08;;;;;;;32.30;16.00;;;;;;;1.64;71.63;100028.65;107505;1254;71759;-40
2024/02/27 03:26:36;;;;;;;26.50;14.70;;;;;;;1.64;71.49;100028.27;107484;1254;67904;-40
2024/02/27 03:29:05;;;;;;;29.80;15.50;;;;;;;1.66;71.22;100014.05;107409;1254;72640;-40
2024/02/27 03:31:33;;;;;;;29.70;15.30;;;;;;;1.77;70.86;100023.22;107497;1254;59660;-40
2024/02/27 03:34:00;;;;;;;32.60;15.50;;;;;;;1.77;70.81;100016.59;107449;1254;59340;-40
2024/02/27 03:36:28;;;;;;;36.00;16.10;;;;;;;1.78;70.65;100015.78;106607;1252;1003690;-39
2024/02/27 03:38:56;;;;;;;26.50;15.90;;;;;;;1.76;70.50;100015.48;107518;1258;67912;-39
2024/02/27 03:41:25;;;;;;;31.50;16.40;;;;;;;1.74;70.54;100014.17;107514;1253;72677;-40
2024/02/27 03:43:52;;;;;;;30.70;15.50;;;;;;;1.71;70.49;100018.15;107402;1254;59490;-39
2024/02/27 03:46:20;;;;;;;31.40;15.80;;;;;;;1.68;70.32;100022.36;107494;1258;60204;-39
2024/02/27 03:48:47;;;;;;;30.70;14.60;;;;;;;1.70;70.13;100025.64;107539;1254;72129;-40
2024/02/27 03:51:15;;;;;;;31.10;15.80;;;;;;;1.67;70.18;100021.62;107518;1254;67632;-40
2024/02/27 03:53:43;;;;;;;25.60;14.80;;;;;;;1.63;70.24;100017.67;107533;1254;71741;-39
2024/02/27 03:56:10;;;;;;;28.60;16.20;;;;;;;1.60;70.27;100021.54;107539;1254;59458;-39
2024/02/27 03:58:38;;;;;;;30.20;16.40;;;;;;;1.54;70.40;100024.77;106756;1254;1002852;-40
2024/02/27 04:01:05;;;;;;;30.90;16.10;;;;;;;1.48;70.33;100025.57;107513;1253;71855;-40
2024/02/27 04:03:33;;;;;;;34.10;15.90;;;;;;;1.44;70.44;100028.98;107591;1254;67250;-39
2024/02/27 04:06:01;;;;;;;28.90;15.20;;;;;;;1.45;70.36;100024.05;107465;1254;72685;-40
2024/02/27 04:08:29;;;;;;;30.40;14.30;;;;;;;1.46;70.27;100026.02;107518;1254;59638;-39
2024/02/27 04:10:57;;;;;;;34.90;15.30;;;;;;;1.45;70.47;100024.74;107507;1258;59759;-39
2024/02/27 04:13:25;;;;;;;34.50;16.90;;;;;;;1.45;70.32;100023.80;107526;1254;73039;-39
2024/02/27 04:15:52;;;;;;;30.20;16.00;;;;;;;1.43;70.34;100026.31;107496;1254;65605;-39
2024/02/27 04:18:20;;;;;;;32.30;16.60;;;;;;;1.35;70.09;100018.44;107493;1254;70155;-40
2024/02/27 04:20:49;;;;;;;27.30;14.90;;;;;;;1.36;70.10;100032.30;107489;1254;60946;-39
2024/02/27 04:23:16;;;;;;;28.60;14.80;;;;;;;1.36;70.13;100028.68;107528;1254;59560;-39
2024/02/27 04:25:44;;;;;;;28.20;15.20;;;;;;;1.40;69.84;100025.38;107543;1257;73089;-40
2024/02/27 04:28:13;;;;;;;29.30;15.00;;;;;;;1.39;69.92;100030.64;107556;1254;67727;-40
2024/02/27 04:30:41;;;;;;;27.40;15.20;;;;;;;1.35;70.06;100027.47;107330;1259;72685;-39
2024/02/27 04:33:08;;;;;;;33.80;17.10;;;;;;;1.31;69.84;100030.55;107483;1254;59612;-39
2024/02/27 04:35:36;;;;;;;32.90;15.50;;;;;;;1.26;69.77;100038.13;107483;1254;60010;-40
2024/02/27 04:38:03;;;;;;;30.50;16.10;;;;;;;1.19;69.93;100041.18;107512;1253;71724;-39
2024/02/27 04:40:31;;;;;;;31.90;16.20;;;;;;;1.12;70.11;100044.55;107515;1254;66423;-39
2024/02/27 04:42:58;;;;;;;28.20;14.70;;;;;;;1.14;69.86;100048.59;107495;1254;72669;-40
2024/02/27 04:45:26;;;;;;;25.10;15.10;;;;;;;1.17;70.17;100051.54;107491;1254;59188;-40
2024/02/27 04:47:53;;;;;;;29.10;15.50;;;;;;;1.18;70.17;100053.42;107495;1254;59513;-39
2024/02/27 04:50:21;;;;;;;31.30;15.60;;;;;;;1.18;70.06;100056.30;107485;1254;73066;-39
2024/02/27 04:52:49;;;;;;;29.90;16.60;;;;;;;1.18;70.23;100060.73;107524;1259;67882;-40
2024/02/27 04:55:16;;;;;;;31.70;16.90;;;;;;;1.16;70.16;100067.21;107492;1254;72779;-39
2024/02/27 04:57:44;;;;;;;25.50;15.20;;;;;;;1.13;70.18;100072.04;107530;1253;59461;-39
2024/02/27 05:00:14;;;;;;;32.40;15.90;;;;;;;1.11;70.17;100074.26;107449;1259;60200;-40
2024/02/27 05:02:42;;;;;;;30.80;16.30;;;;;;;1.13;70.01;100074.45;107494;1254;73122;-39
2024/02/27 05:05:09;;;;;;;30.50;16.10;;;;;;;1.11;69.82;100074.79;107510;1254;68019;-39
2024/02/27 05:07:37;;;;;;;39.60;17.70;;;;;;;1.07;70.21;100078.81;107460;1258;72672;-39
2024/02/27 05:10:05;;;;;;;34.80;17.50;;;;;;;1.04;70.18;100079.38;107430;1253;59628;-40
2024/02/27 05:12:32;;;;;;;32.30;17.90;;;;;;;1.00;70.34;100077.01;107607;1254;59460;-39
2024/02/27 05:15:00;;;;;;;32.70;16.20;;;;;;;0.98;70.42;100078.35;106830;1253;1003094;-39
2024/02/27 05:17:29;;;;;;;29.90;16.60;;;;;;;0.99;70.42;100077.65;107502;1254;67743;-40
2024/02/27 05:19:57;;;;;;;33.40;16.40;;;;;;;0.94;70.38;100070.28;107607;1254;71444;-40
2024/02/27 05:22:25;;;;;;;35.20;18.10;;;;;;;0.95;70.58;100076.41;107227;1254;1003035;-39
2024/02/27 05:24:52;;;;;;;32.40;16.70;;;;;;;0.92;71.02;100079.47;107521;1254;60387;-39
2024/02/27 05:27:20;;;;;;;32.10;17.40;;;;;;;0.89;70.99;100084.45;107596;1254;73865;-40
2024/02/27 05:29:48;;;;;;;30.00;16.80;;;;;;;0.87;70.91;100084.20;107644;1258;67911;-39
2024/02/27 05:32:15;;;;;;;33.80;16.40;;;;;;;0.92;71.02;100087.27;107576;1254;72674;-39
2024/02/27 05:34:43;;;;;;;33.90;18.00;;;;;;;0.98;71.09;100086.10;107510;1257;60421;-40
2024/02/27 05:37:10;;;;;;;34.00;17.70;;;;;;;0.99;71.29;100084.48;107590;1253;60424;-40
2024/02/27 05:39:38;;;;;;;34.60;17.60;;;;;;;0.99;71.36;100088.87;107585;1254;74096;-39
2024/02/27 05:42:06;;;;;;;32.10;16.90;;;;;;;0.99;71.36;100088.60;107594;1254;67601;-39
2024/02/27 05:44:33;;;;;;;33.10;16.50;;;;;;;1.00;71.38;100087.21;107605;1253;72701;-40
2024/02/27 05:47:01;;;;;;;35.70;15.50;;;;;;;1.06;71.25;100090.63;107605;1254;60517;-40
2024/02/27 05:49:29;;;;;;;35.10;17.50;;;;;;;1.12;71.15;100096.41;107617;1256;60328;-39
2024/02/27 05:51:56;;;;;;;33.10;16.30;;;;;;;1.15;71.17;100102.48;107598;1254;73986;-40
2024/02/27 05:54:24;;;;;;;32.40;16.80;;;;;;;1.18;71.05;100104.85;107584;1256;66298;-40
2024/02/27 05:56:52;;;;;;;30.40;16.50;;;;;;;1.21;71.02;100109.38;107589;1254;72500;-39
2024/02/27 05:59:20;;;;;;;29.30;16.10;;;;;;;1.23;71.11;100111.81;106743;1254;1003206;-39
2024/02/27 06:01:48;;;;;;;34.90;15.70;;;;;;;1.29;70.73;100110.80;107619;1257;59529;-40
2024/02/27 06:04:15;;;;;;;27.70;15.40;;;;;;;1.37;70.68;100114.20;107526;1253;72499;-39
2024/02/27 06:06:43;;;;;;;32.20;16.70;;;;;;;1.40;70.32;100114.77;107631;1254;67576;-39
2024/02/27 06:09:12;;;;;;;26.30;15.80;;;;;;;1.42;70.33;100114.21;107654;1254;72694;-40
2024/02/27 06:11:41;;;;;;;31.00;17.30;;;;;;;1.45;70.08;100110.89;107522;1254;60416;-40
2024/02/27 06:14:08;;;;;;;28.70;14.90;;;;;;;1.46;69.93;100112.85;107632;1254;59987;-39
2024/02/27 06:16:36;;;;;;;31.90;15.50;;;;;;;1.52;69.76;100115.43;107629;1254;72567;-39
2024/02/27 06:19:04;;;;;;;31.70;15.40;;;;;;;1.60;69.58;100118.39;107626;1254;67665;-40
2024/02/27 06:24:17;;;;;;;27.70;16.30;;;;;;;1.67;69.36;100124.20;107520;1254;60418;-39
2024/02/27 06:26:45;;;;;;;33.20;16.70;;;;;;;1.72;69.25;100124.21;107633;1254;60345;-40
2024/02/27 06:29:12;;;;;;;34.20;17.00;;;;;;;1.74;68.80;100126.80;107609;1254;73895;-40
2024/02/27 06:31:40;;;;;;;29.30;15.20;;;;;;;1.77;68.50;100128.11;107640;1254;68197;-39
2024/02/27 06:34:08;;;;;;;30.30;15.40;;;;;;;1.83;68.23;100124.20;107608;1255;71456;-39
2024/02/27 06:36:35;;;;;;;32.40;15.70;;;;;;;1.91;67.96;100123.33;107610;1254;60406;-39
2024/02/27 06:39:03;;;;;;;29.40;15.00;;;;;;;1.95;67.81;100130.65;107495;1253;60437;-40
2024/02/27 06:41:31;;;;;;;34.60;16.00;;;;;;;1.99;67.77;100127.84;107596;1254;73856;-39
2024/02/27 06:43:58;;;;;;;28.90;15.20;;;;;;;2.03;67.43;100129.93;107511;1254;67904;-39
2024/02/27 06:46:26;;;;;;;30.70;15.00;;;;;;;2.07;67.36;100131.65;107498;1255;72711;-40
2024/02/27 06:48:53;;;;;;;33.60;15.90;;;;;;;2.05;67.10;100121.66;107520;1254;60398;-40
2024/02/27 06:51:38;;;;;;;29.20;14.60;;;;;;;2.14;66.82;100131.67;107481;1254;60323;-39
2024/02/27 06:54:06;;;;;;;27.30;13.70;;;;;;;2.25;66.41;100133.53;107641;1254;73841;-40
2024/02/27 06:56:34;;;;;;;28.80;14.20;;;;;;;2.36;65.68;100134.30;107514;1255;67590;-40
2024/02/27 06:59:01;;;;;;;26.80;14.70;;;;;;;2.42;65.64;100136.70;107600;1257;71348;-39
2024/02/27 07:01:29;;;;;;;32.70;13.80;;;;;;;2.49;65.83;100139.99;107614;1254;60424;-39
2024/02/27 07:03:57;;;;;;;26.60;13.70;;;;;;;2.59;65.19;100138.36;107610;1254;59189;-40
2024/02/27 07:06:25;;;;;;;27.90;14.70;;;;;;;2.64;64.52;100136.54;107584;1253;73898;-40
2024/02/27 07:08:52;;;;;;;31.80;13.30;;;;;;;2.64;63.87;100130.43;107615;1254;68013;-39
2024/02/27 07:11:20;;;;;;;24.80;14.30;;;;;;;2.72;63.51;100136.27;107375;1259;72735;-40
2024/02/27 07:13:48;;;;;;;25.00;14.10;;;;;;;2.76;63.87;100135.95;107460;1254;60312;-40
2024/02/27 07:16:16;;;;;;;25.70;14.00;;;;;;;2.83;64.00;100139.88;107474;1255;59197;-40
2024/02/27 07:18:43;;;;;;;26.80;14.90;;;;;;;2.88;63.24;100142.36;107522;1254;75922;-40
2024/02/27 07:21:11;;;;;;;27.40;13.60;;;;;;;2.93;62.97;100139.52;107496;1254;67937;-40
2024/02/27 07:23:39;;;;;;;27.20;13.60;;;;;;;2.94;62.56;100143.79;107521;1257;72630;-40
2024/02/27 07:26:06;;;;;;;27.50;15.00;;;;;;;2.94;62.45;100140.67;107510;1254;60447;-40
2024/02/27 07:28:34;;;;;;;27.10;13.90;;;;;;;2.96;62.61;100139.63;107518;1254;60165;-39
2024/02/27 07:31:01;;;;;;;25.00;14.20;;;;;;;3.00;62.22;100144.17;107528;1258;74325;-40
2024/02/27 07:33:29;;;;;;;24.70;13.60;;;;;;;3.03;62.03;100145.36;107507;1259;67155;-40
2024/02/27 07:35:56;;;;;;;28.50;14.30;;;;;;;3.09;62.08;100143.30;107487;1255;71473;-39
2024/02/27 07:38:24;;;;;;;23.50;12.60;;;;;;;3.14;61.79;100144.63;107488;1254;61782;-40
2024/02/27 07:40:52;;;;;;;29.20;14.10;;;;;;;3.21;61.48;100147.30;107504;1254;60316;-40
2024/02/27 07:43:19;;;;;;;29.10;13.90;;;;;;;3.29;61.47;100140.80;107496;1253;72603;-40
2024/02/27 07:45:51;;;;;;;26.40;14.10;;;;;;;3.33;61.18;100143.09;107530;1255;67093;-40
2024/02/27 07:48:22;;;;;;;28.50;14.00;;;;;;;3.37;60.73;100140.34;107499;1257;71455;-40
2024/02/27 07:50:54;;;;;;;26.20;13.30;;;;;;;3.41;60.60;100141.63;107555;1254;60404;-40
2024/02/27 07:53:22;;;;;;;28.00;14.40;;;;;;;3.46;60.24;100138.04;107381;1254;60081;-40
2024/02/27 07:55:50;;;;;;;31.80;14.20;;;;;;;3.51;60.28;100142.32;107511;1252;76255;-40
2024/02/27 07:58:17;;;;;;;28.20;14.10;;;;;;;3.59;60.21;100135.65;107504;1254;66703;-40
2024/02/27 08:00:45;;;;;;;26.50;13.20;;;;;;;3.68;60.03;100131.73;107490;1254;71075;-40
2024/02/27 08:03:13;;;;;;;24.90;14.50;;;;;;;3.78;59.68;100127.69;106769;1254;1003263;-40
2024/02/27 08:05:41;;;;;;;27.60;13.70;;;;;;;3.88;59.47;100134.16;107499;1257;60926;-40
2024/02/27 08:08:08;;;;;;;24.40;13.10;;;;;;;3.98;59.18;100136.40;107505;1254;74088;-40
2024/02/27 08:10:36;;;;;;;28.50;13.30;;;;;;;4.07;58.66;100130.81;107510;1260;68245;-40
2024/02/27 08:13:04;;;;;;;23.10;12.20;;;;;;;4.12;58.58;100138.92;107669;1254;71424;-40
2024/02/27 08:15:31;;;;;;;24.90;12.60;;;;;;;4.20;58.38;100144.52;107518;1254;60408;-39
2024/02/27 08:17:59;;;;;;;29.00;13.10;;;;;;;4.32;57.78;100146.47;107575;1259;59689;-39
2024/02/27 08:20:27;;;;;;;23.80;12.60;;;;;;;4.47;57.77;100144.80;107547;1254;75987;-39
2024/02/27 08:22:54;;;;;;;26.60;11.80;;;;;;;4.61;57.07;100146.05;107532;1254;66770;-40
2024/02/27 08:25:23;;;;;;;30.00;13.00;;;;;;;4.74;57.21;100141.27;107512;1254;71568;-39
2024/02/27 08:27:51;;;;;;;22.00;11.90;;;;;;;4.93;56.70;100139.23;107550;1255;60421;-39
2024/02/27 08:30:18;;;;;;;23.10;11.80;;;;;;;5.07;55.79;100137.41;107491;1254;60295;-40
2024/02/27 08:32:46;;;;;;;22.70;11.60;;;;;;;5.22;55.61;100141.64;107559;1254;74393;-40
2024/02/27 08:35:17;;;;;;;22.30;11.90;;;;;;;5.40;55.60;100138.89;107526;1254;67512;-40
2024/02/27 08:37:44;;;;;;;24.20;11.90;;;;;;;5.57;54.98;100145.56;107503;1257;73032;-40
2024/02/27 08:40:12;;;;;;;28.50;11.60;;;;;;;5.69;54.59;100145.16;107491;1257;60366;-40
2024/02/27 08:42:40;;;;;;;22.00;11.40;;;;;;;5.81;54.62;100153.42;107502;1254;60367;-40
2024/02/27 08:45:09;;;;;;;22.20;11.90;;;;;;;5.96;54.64;100158.39;107484;1257;72626;-40
2024/02/27 08:47:36;;;;;;;25.00;12.40;;;;;;;6.12;53.80;100159.52;107643;1251;66833;-40
2024/02/27 08:50:05;;;;;;;17.50;10.20;;;;;;;6.27;53.58;100153.61;107664;1256;73001;-40
2024/02/27 08:52:33;;;;;;;17.70;10.00;;;;;;;6.40;52.98;100159.34;107575;1257;59527;-40
2024/02/27 08:55:01;;;;;;;18.20;9.90;;;;;;;6.52;52.30;100160.73;107668;1254;60371;-39
2024/02/27 08:57:29;;;;;;;20.20;10.30;;;;;;;6.61;51.81;100159.30;107634;1252;76040;-40
2024/02/27 08:59:57;;;;;;;18.30;9.80;;;;;;;6.73;51.73;100167.72;107696;1257;70266;-40
2024/02/27 09:02:24;;;;;;;17.70;9.50;;;;;;;6.88;51.63;100167.89;107665;1251;74796;-40
2024/02/27 09:04:52;;;;;;;18.70;10.20;;;;;;;7.08;51.18;100167.25;107637;1254;60293;-40
2024/02/27 09:07:20;;;;;;;16.30;9.90;;;;;;;7.26;50.26;100162.94;107658;1251;60314;-40
2024/02/27 09:09:48;;;;;;;20.00;9.40;;;;;;;7.43;50.02;100155.73;107678;1251;74763;-40
2024/02/27 09:12:17;;;;;;;19.00;9.80;;;;;;;7.58;49.28;100157.07;107672;1251;66846;-40
2024/02/27 09:14:45;;;;;;;20.60;9.60;;;;;;;7.69;48.79;100157.81;107665;1255;73101;-40
2024/02/27 09:17:12;;;;;;;17.10;9.20;;;;;;;7.81;49.27;100162.77;107628;1255;60444;-40
2024/02/27 09:19:40;;;;;;;16.00;9.30;;;;;;;8.00;49.46;100160.18;107668;1251;60421;-40
2024/02/27 09:22:07;;;;;;;15.80;8.30;;;;;;;8.23;49.06;100159.28;107648;1258;74199;-41
2024/02/27 09:24:35;;;;;;;19.00;8.30;;;;;;;8.49;47.44;100155.88;107658;1257;69813;-40
2024/02/27 09:27:03;;;;;;;13.80;7.60;;;;;;;8.72;46.91;100146.59;107681;1257;71684;-40
2024/02/27 09:29:33;;;;;;;16.90;8.30;;;;;;;8.95;45.81;100149.09;107656;1251;61073;-40
2024/02/27 09:32:01;;;;;;;17.60;7.30;;;;;;;9.11;46.04;100143.52;107707;1251;60383;-40
2024/02/27 09:34:28;;;;;;;12.30;7.20;;;;;;;9.27;45.13;100144.88;107646;1251;73996;-40
2024/02/27 09:36:56;;;;;;;19.80;7.60;;;;;;;9.36;44.21;100137.15;107672;1251;68191;-40
2024/02/27 09:39:24;;;;;;;20.10;8.00;;;;;;;9.39;43.61;100140.75;107686;1257;71809;-41
2024/02/27 09:41:58;;;;;;;13.00;7.40;;;;;;;9.42;43.79;100142.25;107655;1251;60567;-41
2024/02/27 09:44:26;;;;;;;17.80;7.00;;;;;;;9.51;43.07;100145.28;107766;1251;60469;-40
2024/02/27 09:46:54;;;;;;;14.60;7.70;;;;;;;9.55;43.39;100144.51;107658;1252;74199;-40
2024/02/27 09:49:22;;;;;;;12.20;7.40;;;;;;;9.63;43.32;100142.75;107435;1258;69949;-40
2024/02/27 09:52:12;;;;;;;13.40;7.10;;;;;;;9.73;42.87;100142.10;107734;1251;74818;-40
2024/02/27 09:54:40;;;;;;;14.90;7.70;;;;;;;9.80;43.47;100137.31;107592;1251;60318;-41
2024/02/27 09:57:09;;;;;;;14.70;9.00;;;;;;;9.94;43.25;100136.79;107735;1257;60457;-41
2024/02/27 09:59:38;;;;;;;15.80;7.70;;;;;;;10.12;43.71;100134.30;107666;1251;72723;-41
2024/02/27 10:02:12;;;;;;;14.40;7.00;;;;;;;10.27;43.53;100129.23;107736;1251;68037;-40
2024/02/27 10:04:41;;;;;;;14.70;7.10;;;;;;;10.51;43.37;100130.09;107696;1256;72837;-40
2024/02/27 10:07:10;;;;;;;13.50;7.20;;;;;;;10.78;42.12;100127.52;107628;1257;61012;-41
2024/02/27 10:09:39;;;;;;;14.00;7.00;;;;;;;11.02;41.74;100119.14;107647;1251;60793;-39
2024/02/27 10:12:07;;;;;;;15.10;7.00;;;;;;;11.23;41.50;100114.55;107609;1258;75832;-40
2024/02/27 10:14:38;;;;;;;12.30;6.80;;;;;;;11.41;39.55;100114.81;107664;1251;67462;-40
2024/02/27 10:17:06;;;;;;;16.10;6.40;;;;;;;11.52;39.15;100109.08;107670;1257;74781;-40
2024/02/27 10:19:35;;;;;;;13.40;6.80;;;;;;;11.63;38.80;100110.38;107705;1257;60421;-39
2024/02/27 10:22:03;;;;;;;12.50;7.10;;;;;;;11.75;38.87;100105.60;107712;1256;60325;-40
2024/02/27 10:24:31;;;;;;;12.30;6.70;;;;;;;11.85;39.13;100108.95;107706;1256;74009;-40
2024/02/27 10:27:04;;;;;;;13.50;6.50;;;;;;;11.95;37.55;100108.04;107702;1251;66746;-39
2024/02/27 10:29:32;;;;;;;13.60;7.20;;;;;;;12.01;36.99;100107.88;107639;1251;72804;-40
2024/02/27 10:32:00;;;;;;;13.30;6.70;;;;;;;11.98;36.87;100108.88;107635;1253;60315;-40
2024/02/27 10:34:28;;;;;;;14.40;7.50;;;;;;;11.96;37.09;100108.85;107703;1251;60441;-40
2024/02/27 10:37:01;;;;;;;12.50;6.40;;;;;;;12.02;37.01;100107.05;107686;1251;72666;-40
2024/02/27 10:39:31;;;;;;;14.00;6.30;;;;;;;12.04;36.80;100105.70;107666;1251;66717;-39
2024/02/27 10:41:58;;;;;;;14.40;6.20;;;;;;;12.06;36.62;100104.69;107624;1254;73908;-40
2024/02/27 10:44:26;;;;;;;14.60;5.80;;;;;;;12.15;36.18;100107.15;107671;1251;60316;-41
2024/02/27 10:46:57;;;;;;;10.30;5.60;;;;;;;12.22;36.43;100101.63;107663;1251;60400;-40
2024/02/27 10:49:26;;;;;;;13.00;5.60;;;;;;;12.34;36.03;100101.09;107657;1251;74017;-41
2024/02/27 10:51:54;;;;;;;14.90;6.40;;;;;;;12.49;35.91;100099.64;107721;1251;66499;-41
2024/02/27 10:54:23;;;;;;;11.60;6.50;;;;;;;12.63;35.04;100107.34;107531;1251;73075;-41
2024/02/27 10:56:50;;;;;;;10.10;5.70;;;;;;;12.73;35.30;100106.01;107631;1254;60359;-41
2024/02/27 10:59:18;;;;;;;13.70;6.70;;;;;;;12.84;35.62;100100.17;107647;1257;60393;-41
2024/02/27 11:01:46;;;;;;;11.30;5.70;;;;;;;12.97;35.25;100101.64;107669;1256;76093;-41
2024/02/27 11:04:19;;;;;;;13.40;5.60;;;;;;;13.05;34.43;100107.10;107662;1252;66284;-41
2024/02/27 11:06:49;;;;;;;12.80;5.90;;;;;;;13.12;34.91;100101.26;107610;1259;71952;-41
2024/02/27 11:09:27;;;;;;;17.20;5.60;;;;;;;13.23;33.71;100103.52;107700;1251;60264;-41
2024/02/27 11:12:04;;;;;;;15.60;6.50;;;;;;;13.27;34.14;100100.88;107527;1251;60719;-41
2024/02/27 11:14:35;;;;;;;8.90;5.90;;;;;;;13.34;34.11;100106.77;107630;1251;76128;-41
2024/02/27 11:17:16;;;;;;;10.20;6.00;;;;;;;13.43;33.92;100101.44;107709;1251;67873;-39
2024/02/27 11:19:49;;;;;;;14.20;5.90;;;;;;;13.42;33.56;100108.64;107542;1251;72777;-40
2024/02/27 11:22:18;;;;;;;14.70;6.40;;;;;;;13.41;33.74;100103.71;107693;1254;59221;-40